sensor_id;sensor_type;location;lat;lon;timestamp;P1;durP1;ratioP1;P2;durP2;ratioP2
74196;SDS011;62555;52.678;4.900;2022-11-14T00:00:07;25.63;;;10.65;;
74196;SDS011;62555;52.678;4.900;2022-11-14T00:02:34;26.95;;;9.60;;
74196;SDS011;62555;52.678;4.900;2022-11-14T00:04:59;32.67;;;9.27;;
74196;SDS011;62555;52.678;4.900;2022-11-14T00:07:25;19.05;;;8.60;;
74196;SDS011;62555;52.678;4.900;2022-11-14T00:09:53;25.00;;;8.90;;
74196;SDS011;62555;52.678;4.900;2022-11-14T00:12:18;24.67;;;10.38;;
74196;SDS011;62555;52.678;4.900;2022-11-14T00:14:44;18.33;;;8.00;;
74196;SDS011;62555;52.678;4.900;2022-11-14T00:17:09;20.48;;;7.97;;
74196;SDS011;62555;52.678;4.900;2022-11-14T00:19:34;22.50;;;8.63;;
74196;SDS011;62555;52.678;4.900;2022-11-14T00:21:59;24.13;;;8.45;;
74196;SDS011;62555;52.678;4.900;2022-11-14T00:24:25;26.15;;;9.38;;
74196;SDS011;62555;52.678;4.900;2022-11-14T00:26:50;17.67;;;8.40;;
74196;SDS011;62555;52.678;4.900;2022-11-14T00:29:15;21.60;;;9.05;;
74196;SDS011;62555;52.678;4.900;2022-11-14T00:31:41;20.10;;;8.18;;
74196;SDS011;62555;52.678;4.900;2022-11-14T00:34:06;21.55;;;8.02;;
74196;SDS011;62555;52.678;4.900;2022-11-14T00:36:32;25.00;;;8.52;;
74196;SDS011;62555;52.678;4.900;2022-11-14T00:38:58;17.60;;;8.32;;
74196;SDS011;62555;52.678;4.900;2022-11-14T00:41:23;19.27;;;8.88;;
74196;SDS011;62555;52.678;4.900;2022-11-14T00:43:49;21.30;;;8.70;;
74196;SDS011;62555;52.678;4.900;2022-11-14T00:46:14;16.52;;;7.90;;
74196;SDS011;62555;52.678;4.900;2022-11-14T00:48:39;16.85;;;8.45;;
74196;SDS011;62555;52.678;4.900;2022-11-14T00:51:05;22.08;;;8.88;;
74196;SDS011;62555;52.678;4.900;2022-11-14T00:53:30;17.67;;;8.88;;
74196;SDS011;62555;52.678;4.900;2022-11-14T00:55:56;18.98;;;8.98;;
74196;SDS011;62555;52.678;4.900;2022-11-14T00:58:21;18.85;;;8.68;;
74196;SDS011;62555;52.678;4.900;2022-11-14T01:00:47;21.10;;;8.95;;
74196;SDS011;62555;52.678;4.900;2022-11-14T01:03:12;17.92;;;8.95;;
74196;SDS011;62555;52.678;4.900;2022-11-14T01:05:41;21.13;;;9.88;;
74196;SDS011;62555;52.678;4.900;2022-11-14T01:08:07;21.38;;;8.82;;
74196;SDS011;62555;52.678;4.900;2022-11-14T01:10:33;17.58;;;8.77;;
74196;SDS011;62555;52.678;4.900;2022-11-14T01:12:58;18.65;;;8.52;;
74196;SDS011;62555;52.678;4.900;2022-11-14T01:15:24;17.20;;;8.13;;
74196;SDS011;62555;52.678;4.900;2022-11-14T01:17:49;15.82;;;8.63;;
74196;SDS011;62555;52.678;4.900;2022-11-14T01:20:15;19.00;;;9.25;;
74196;SDS011;62555;52.678;4.900;2022-11-14T01:22:40;17.38;;;8.70;;
74196;SDS011;62555;52.678;4.900;2022-11-14T01:25:06;22.05;;;9.35;;
74196;SDS011;62555;52.678;4.900;2022-11-14T01:27:32;17.88;;;8.85;;
74196;SDS011;62555;52.678;4.900;2022-11-14T01:29:57;14.75;;;9.13;;
74196;SDS011;62555;52.678;4.900;2022-11-14T01:32:22;17.05;;;8.48;;
74196;SDS011;62555;52.678;4.900;2022-11-14T01:34:48;15.65;;;8.93;;
74196;SDS011;62555;52.678;4.900;2022-11-14T01:37:13;14.88;;;9.38;;
74196;SDS011;62555;52.678;4.900;2022-11-14T01:39:39;15.65;;;8.80;;
74196;SDS011;62555;52.678;4.900;2022-11-14T01:42:04;16.73;;;9.38;;
74196;SDS011;62555;52.678;4.900;2022-11-14T01:47:19;16.52;;;9.30;;
74196;SDS011;62555;52.678;4.900;2022-11-14T01:49:46;15.27;;;9.57;;
74196;SDS011;62555;52.678;4.900;2022-11-14T01:54:45;14.27;;;9.50;;
74196;SDS011;62555;52.678;4.900;2022-11-14T01:57:13;14.80;;;9.40;;
74196;SDS011;62555;52.678;4.900;2022-11-14T01:59:43;14.77;;;9.40;;
74196;SDS011;62555;52.678;4.900;2022-11-14T02:02:18;18.75;;;10.55;;
74196;SDS011;62555;52.678;4.900;2022-11-14T02:04:49;19.17;;;10.20;;
74196;SDS011;62555;52.678;4.900;2022-11-14T02:07:18;16.00;;;11.10;;
74196;SDS011;62555;52.678;4.900;2022-11-14T02:09:45;16.05;;;10.07;;
74196;SDS011;62555;52.678;4.900;2022-11-14T02:12:11;18.38;;;10.43;;
74196;SDS011;62555;52.678;4.900;2022-11-14T02:14:38;16.08;;;10.20;;
74196;SDS011;62555;52.678;4.900;2022-11-14T02:17:04;15.85;;;10.10;;
74196;SDS011;62555;52.678;4.900;2022-11-14T02:19:40;14.93;;;10.07;;
74196;SDS011;62555;52.678;4.900;2022-11-14T02:22:09;16.33;;;10.55;;
74196;SDS011;62555;52.678;4.900;2022-11-14T02:24:34;16.35;;;11.48;;
74196;SDS011;62555;52.678;4.900;2022-11-14T02:27:01;15.60;;;10.45;;
74196;SDS011;62555;52.678;4.900;2022-11-14T02:29:26;17.23;;;11.20;;
74196;SDS011;62555;52.678;4.900;2022-11-14T02:31:52;14.77;;;9.90;;
74196;SDS011;62555;52.678;4.900;2022-11-14T02:34:17;15.43;;;10.57;;
74196;SDS011;62555;52.678;4.900;2022-11-14T02:36:44;15.35;;;10.73;;
74196;SDS011;62555;52.678;4.900;2022-11-14T02:39:10;17.98;;;10.77;;
74196;SDS011;62555;52.678;4.900;2022-11-14T02:41:35;17.40;;;10.70;;
74196;SDS011;62555;52.678;4.900;2022-11-14T02:44:00;18.02;;;11.00;;
74196;SDS011;62555;52.678;4.900;2022-11-14T02:46:25;16.75;;;10.45;;
74196;SDS011;62555;52.678;4.900;2022-11-14T02:48:51;13.25;;;9.88;;
74196;SDS011;62555;52.678;4.900;2022-11-14T02:51:16;14.18;;;9.93;;
74196;SDS011;62555;52.678;4.900;2022-11-14T02:53:42;15.90;;;10.85;;
74196;SDS011;62555;52.678;4.900;2022-11-14T02:56:07;15.27;;;10.68;;
74196;SDS011;62555;52.678;4.900;2022-11-14T02:58:32;16.02;;;10.77;;
74196;SDS011;62555;52.678;4.900;2022-11-14T03:00:58;15.82;;;11.13;;
74196;SDS011;62555;52.678;4.900;2022-11-14T03:03:23;17.15;;;12.13;;
74196;SDS011;62555;52.678;4.900;2022-11-14T03:05:48;17.63;;;11.57;;
74196;SDS011;62555;52.678;4.900;2022-11-14T03:08:17;15.30;;;10.68;;
74196;SDS011;62555;52.678;4.900;2022-11-14T03:10:42;16.95;;;10.88;;
74196;SDS011;62555;52.678;4.900;2022-11-14T03:13:08;16.05;;;11.40;;
74196;SDS011;62555;52.678;4.900;2022-11-14T03:15:35;16.70;;;12.13;;
74196;SDS011;62555;52.678;4.900;2022-11-14T03:18:01;17.73;;;11.07;;
74196;SDS011;62555;52.678;4.900;2022-11-14T03:20:26;14.75;;;10.38;;
74196;SDS011;62555;52.678;4.900;2022-11-14T03:22:52;16.42;;;11.25;;
74196;SDS011;62555;52.678;4.900;2022-11-14T03:25:17;14.40;;;10.52;;
74196;SDS011;62555;52.678;4.900;2022-11-14T03:27:42;15.65;;;10.05;;
74196;SDS011;62555;52.678;4.900;2022-11-14T03:30:08;17.88;;;11.30;;
74196;SDS011;62555;52.678;4.900;2022-11-14T03:32:34;19.13;;;10.48;;
74196;SDS011;62555;52.678;4.900;2022-11-14T03:34:59;15.32;;;10.85;;
74196;SDS011;62555;52.678;4.900;2022-11-14T03:37:24;17.85;;;11.88;;
74196;SDS011;62555;52.678;4.900;2022-11-14T03:39:50;19.08;;;11.82;;
74196;SDS011;62555;52.678;4.900;2022-11-14T03:42:15;17.05;;;11.15;;
74196;SDS011;62555;52.678;4.900;2022-11-14T03:44:41;15.77;;;12.18;;
74196;SDS011;62555;52.678;4.900;2022-11-14T03:47:06;16.40;;;11.90;;
74196;SDS011;62555;52.678;4.900;2022-11-14T03:49:32;16.52;;;11.02;;
74196;SDS011;62555;52.678;4.900;2022-11-14T03:51:57;17.52;;;12.68;;
74196;SDS011;62555;52.678;4.900;2022-11-14T03:54:22;16.60;;;11.70;;
74196;SDS011;62555;52.678;4.900;2022-11-14T03:56:48;16.33;;;11.60;;
74196;SDS011;62555;52.678;4.900;2022-11-14T03:59:13;18.67;;;11.52;;
74196;SDS011;62555;52.678;4.900;2022-11-14T04:01:38;16.88;;;11.57;;
74196;SDS011;62555;52.678;4.900;2022-11-14T04:04:04;18.13;;;12.38;;
74196;SDS011;62555;52.678;4.900;2022-11-14T04:06:29;18.25;;;11.52;;
74196;SDS011;62555;52.678;4.900;2022-11-14T04:08:54;17.48;;;11.98;;
74196;SDS011;62555;52.678;4.900;2022-11-14T04:11:20;16.60;;;12.00;;
74196;SDS011;62555;52.678;4.900;2022-11-14T04:13:46;19.98;;;13.38;;
74196;SDS011;62555;52.678;4.900;2022-11-14T04:16:11;17.90;;;12.35;;
74196;SDS011;62555;52.678;4.900;2022-11-14T04:18:37;19.98;;;12.18;;
74196;SDS011;62555;52.678;4.900;2022-11-14T04:21:02;15.65;;;11.18;;
74196;SDS011;62555;52.678;4.900;2022-11-14T04:23:28;17.52;;;11.93;;
74196;SDS011;62555;52.678;4.900;2022-11-14T04:25:53;15.98;;;11.48;;
74196;SDS011;62555;52.678;4.900;2022-11-14T04:28:18;18.80;;;12.10;;
74196;SDS011;62555;52.678;4.900;2022-11-14T04:30:44;19.38;;;13.05;;
74196;SDS011;62555;52.678;4.900;2022-11-14T04:33:09;19.08;;;12.93;;
74196;SDS011;62555;52.678;4.900;2022-11-14T04:35:35;19.52;;;12.88;;
74196;SDS011;62555;52.678;4.900;2022-11-14T04:38:00;16.30;;;12.48;;
74196;SDS011;62555;52.678;4.900;2022-11-14T04:40:25;19.95;;;11.57;;
74196;SDS011;62555;52.678;4.900;2022-11-14T04:42:51;15.52;;;11.77;;
74196;SDS011;62555;52.678;4.900;2022-11-14T04:45:16;17.73;;;12.63;;
74196;SDS011;62555;52.678;4.900;2022-11-14T04:47:42;21.33;;;13.35;;
74196;SDS011;62555;52.678;4.900;2022-11-14T04:50:07;19.73;;;12.68;;
74196;SDS011;62555;52.678;4.900;2022-11-14T04:52:33;21.30;;;12.73;;
74196;SDS011;62555;52.678;4.900;2022-11-14T04:54:58;17.13;;;12.45;;
74196;SDS011;62555;52.678;4.900;2022-11-14T04:57:24;18.08;;;12.07;;
74196;SDS011;62555;52.678;4.900;2022-11-14T04:59:49;22.10;;;12.82;;
74196;SDS011;62555;52.678;4.900;2022-11-14T05:02:15;20.60;;;12.80;;
74196;SDS011;62555;52.678;4.900;2022-11-14T05:04:40;18.67;;;12.88;;
74196;SDS011;62555;52.678;4.900;2022-11-14T05:07:10;19.38;;;12.18;;
74196;SDS011;62555;52.678;4.900;2022-11-14T05:09:36;18.20;;;12.82;;
74196;SDS011;62555;52.678;4.900;2022-11-14T05:12:02;20.40;;;12.32;;
74196;SDS011;62555;52.678;4.900;2022-11-14T05:14:28;21.92;;;13.27;;
74196;SDS011;62555;52.678;4.900;2022-11-14T05:16:53;21.08;;;14.43;;
74196;SDS011;62555;52.678;4.900;2022-11-14T05:19:19;20.38;;;12.98;;
74196;SDS011;62555;52.678;4.900;2022-11-14T05:21:45;19.08;;;12.90;;
74196;SDS011;62555;52.678;4.900;2022-11-14T05:24:10;19.85;;;12.95;;
74196;SDS011;62555;52.678;4.900;2022-11-14T05:26:35;19.25;;;12.63;;
74196;SDS011;62555;52.678;4.900;2022-11-14T05:29:01;21.35;;;14.27;;
74196;SDS011;62555;52.678;4.900;2022-11-14T05:31:26;21.73;;;13.13;;
74196;SDS011;62555;52.678;4.900;2022-11-14T05:33:51;19.73;;;13.05;;
74196;SDS011;62555;52.678;4.900;2022-11-14T05:36:17;21.27;;;13.13;;
74196;SDS011;62555;52.678;4.900;2022-11-14T05:38:42;22.48;;;15.20;;
74196;SDS011;62555;52.678;4.900;2022-11-14T05:41:12;20.98;;;14.05;;
74196;SDS011;62555;52.678;4.900;2022-11-14T05:43:39;24.25;;;14.57;;
74196;SDS011;62555;52.678;4.900;2022-11-14T05:46:05;22.02;;;13.00;;
74196;SDS011;62555;52.678;4.900;2022-11-14T05:48:33;24.65;;;14.48;;
74196;SDS011;62555;52.678;4.900;2022-11-14T05:51:00;21.10;;;13.45;;
74196;SDS011;62555;52.678;4.900;2022-11-14T05:53:26;21.60;;;14.30;;
74196;SDS011;62555;52.678;4.900;2022-11-14T05:55:52;22.50;;;14.75;;
74196;SDS011;62555;52.678;4.900;2022-11-14T05:58:19;26.05;;;15.07;;
74196;SDS011;62555;52.678;4.900;2022-11-14T06:00:44;23.40;;;13.75;;
74196;SDS011;62555;52.678;4.900;2022-11-14T06:03:09;21.33;;;12.95;;
74196;SDS011;62555;52.678;4.900;2022-11-14T06:05:35;20.92;;;13.45;;
74196;SDS011;62555;52.678;4.900;2022-11-14T06:08:01;22.48;;;12.98;;
74196;SDS011;62555;52.678;4.900;2022-11-14T06:10:26;21.17;;;12.93;;
74196;SDS011;62555;52.678;4.900;2022-11-14T06:12:52;23.23;;;14.93;;
74196;SDS011;62555;52.678;4.900;2022-11-14T06:15:18;24.45;;;15.38;;
74196;SDS011;62555;52.678;4.900;2022-11-14T06:17:43;23.92;;;15.05;;
74196;SDS011;62555;52.678;4.900;2022-11-14T06:20:08;24.08;;;13.52;;
74196;SDS011;62555;52.678;4.900;2022-11-14T06:22:34;20.77;;;14.07;;
74196;SDS011;62555;52.678;4.900;2022-11-14T06:25:00;25.95;;;15.02;;
74196;SDS011;62555;52.678;4.900;2022-11-14T06:27:26;23.02;;;13.95;;
74196;SDS011;62555;52.678;4.900;2022-11-14T06:29:51;20.70;;;13.68;;
74196;SDS011;62555;52.678;4.900;2022-11-14T06:32:17;20.30;;;12.30;;
74196;SDS011;62555;52.678;4.900;2022-11-14T06:34:42;22.98;;;14.63;;
74196;SDS011;62555;52.678;4.900;2022-11-14T06:37:07;20.85;;;13.95;;
74196;SDS011;62555;52.678;4.900;2022-11-14T06:39:33;24.63;;;15.60;;
74196;SDS011;62555;52.678;4.900;2022-11-14T06:41:58;24.40;;;14.27;;
74196;SDS011;62555;52.678;4.900;2022-11-14T06:44:23;21.90;;;14.15;;
74196;SDS011;62555;52.678;4.900;2022-11-14T06:46:49;22.58;;;14.07;;
74196;SDS011;62555;52.678;4.900;2022-11-14T06:49:14;25.30;;;14.18;;
74196;SDS011;62555;52.678;4.900;2022-11-14T06:51:39;23.27;;;15.07;;
74196;SDS011;62555;52.678;4.900;2022-11-14T06:54:04;23.30;;;14.20;;
74196;SDS011;62555;52.678;4.900;2022-11-14T06:56:30;23.10;;;14.05;;
74196;SDS011;62555;52.678;4.900;2022-11-14T06:58:55;21.10;;;13.65;;
74196;SDS011;62555;52.678;4.900;2022-11-14T07:01:24;21.17;;;13.63;;
74196;SDS011;62555;52.678;4.900;2022-11-14T07:03:52;20.90;;;12.55;;
74196;SDS011;62555;52.678;4.900;2022-11-14T07:06:22;22.27;;;13.90;;
74196;SDS011;62555;52.678;4.900;2022-11-14T07:08:48;21.17;;;13.50;;
74196;SDS011;62555;52.678;4.900;2022-11-14T07:11:18;21.65;;;13.10;;
74196;SDS011;62555;52.678;4.900;2022-11-14T07:16:25;22.35;;;14.52;;
74196;SDS011;62555;52.678;4.900;2022-11-14T07:18:55;22.40;;;14.40;;
74196;SDS011;62555;52.678;4.900;2022-11-14T07:21:21;23.02;;;13.05;;
74196;SDS011;62555;52.678;4.900;2022-11-14T07:23:46;21.10;;;13.52;;
74196;SDS011;62555;52.678;4.900;2022-11-14T07:26:12;22.25;;;13.73;;
74196;SDS011;62555;52.678;4.900;2022-11-14T07:28:38;23.42;;;13.55;;
74196;SDS011;62555;52.678;4.900;2022-11-14T07:31:05;21.33;;;13.80;;
74196;SDS011;62555;52.678;4.900;2022-11-14T07:33:31;21.13;;;13.88;;
74196;SDS011;62555;52.678;4.900;2022-11-14T07:35:57;20.02;;;13.05;;
74196;SDS011;62555;52.678;4.900;2022-11-14T07:38:22;24.63;;;14.63;;
74196;SDS011;62555;52.678;4.900;2022-11-14T07:43:20;22.20;;;14.20;;
74196;SDS011;62555;52.678;4.900;2022-11-14T07:45:45;21.05;;;12.68;;
74196;SDS011;62555;52.678;4.900;2022-11-14T07:48:10;21.98;;;12.80;;
74196;SDS011;62555;52.678;4.900;2022-11-14T07:50:36;21.58;;;13.40;;
74196;SDS011;62555;52.678;4.900;2022-11-14T07:53:01;22.30;;;12.63;;
74196;SDS011;62555;52.678;4.900;2022-11-14T07:55:26;21.15;;;14.05;;
74196;SDS011;62555;52.678;4.900;2022-11-14T07:57:52;18.17;;;12.20;;
74196;SDS011;62555;52.678;4.900;2022-11-14T08:00:19;20.45;;;12.88;;
74196;SDS011;62555;52.678;4.900;2022-11-14T08:02:44;21.02;;;13.30;;
74196;SDS011;62555;52.678;4.900;2022-11-14T08:05:10;20.83;;;12.90;;
74196;SDS011;62555;52.678;4.900;2022-11-14T08:07:35;22.58;;;13.52;;
74196;SDS011;62555;52.678;4.900;2022-11-14T08:10:01;21.17;;;12.50;;
74196;SDS011;62555;52.678;4.900;2022-11-14T08:12:26;21.70;;;13.90;;
74196;SDS011;62555;52.678;4.900;2022-11-14T08:14:52;20.67;;;12.50;;
74196;SDS011;62555;52.678;4.900;2022-11-14T08:17:18;18.20;;;12.18;;
74196;SDS011;62555;52.678;4.900;2022-11-14T08:19:44;20.88;;;14.32;;
74196;SDS011;62555;52.678;4.900;2022-11-14T08:22:09;21.02;;;13.23;;
74196;SDS011;62555;52.678;4.900;2022-11-14T08:24:35;19.30;;;12.10;;
74196;SDS011;62555;52.678;4.900;2022-11-14T08:27:00;19.35;;;12.18;;
74196;SDS011;62555;52.678;4.900;2022-11-14T08:29:25;20.08;;;13.52;;
74196;SDS011;62555;52.678;4.900;2022-11-14T08:31:51;20.88;;;13.48;;
74196;SDS011;62555;52.678;4.900;2022-11-14T08:34:16;20.25;;;13.43;;
74196;SDS011;62555;52.678;4.900;2022-11-14T08:36:42;18.95;;;12.00;;
74196;SDS011;62555;52.678;4.900;2022-11-14T08:39:07;21.27;;;11.93;;
74196;SDS011;62555;52.678;4.900;2022-11-14T08:41:32;18.30;;;12.18;;
74196;SDS011;62555;52.678;4.900;2022-11-14T08:43:58;17.85;;;11.55;;
74196;SDS011;62555;52.678;4.900;2022-11-14T08:46:23;21.00;;;13.05;;
74196;SDS011;62555;52.678;4.900;2022-11-14T08:48:49;19.52;;;12.27;;
74196;SDS011;62555;52.678;4.900;2022-11-14T08:51:14;18.25;;;11.90;;
74196;SDS011;62555;52.678;4.900;2022-11-14T08:53:40;18.10;;;12.45;;
74196;SDS011;62555;52.678;4.900;2022-11-14T08:56:05;18.02;;;12.18;;
74196;SDS011;62555;52.678;4.900;2022-11-14T08:58:31;17.85;;;11.88;;
74196;SDS011;62555;52.678;4.900;2022-11-14T09:01:00;17.27;;;12.20;;
74196;SDS011;62555;52.678;4.900;2022-11-14T09:03:26;16.17;;;11.45;;
74196;SDS011;62555;52.678;4.900;2022-11-14T09:05:52;18.95;;;11.68;;
74196;SDS011;62555;52.678;4.900;2022-11-14T09:08:17;17.77;;;11.73;;
74196;SDS011;62555;52.678;4.900;2022-11-14T09:10:43;14.75;;;10.73;;
74196;SDS011;62555;52.678;4.900;2022-11-14T09:13:09;18.02;;;12.38;;
74196;SDS011;62555;52.678;4.900;2022-11-14T09:15:34;20.45;;;13.95;;
74196;SDS011;62555;52.678;4.900;2022-11-14T09:17:59;25.67;;;14.63;;
74196;SDS011;62555;52.678;4.900;2022-11-14T09:20:25;30.92;;;15.38;;
74196;SDS011;62555;52.678;4.900;2022-11-14T09:22:51;27.73;;;14.90;;
74196;SDS011;62555;52.678;4.900;2022-11-14T09:25:18;31.92;;;15.70;;
74196;SDS011;62555;52.678;4.900;2022-11-14T09:27:44;29.67;;;15.73;;
74196;SDS011;62555;52.678;4.900;2022-11-14T09:30:09;29.73;;;15.63;;
74196;SDS011;62555;52.678;4.900;2022-11-14T09:32:35;30.75;;;17.40;;
74196;SDS011;62555;52.678;4.900;2022-11-14T09:35:01;27.92;;;15.63;;
74196;SDS011;62555;52.678;4.900;2022-11-14T09:37:26;33.35;;;16.92;;
74196;SDS011;62555;52.678;4.900;2022-11-14T09:39:51;26.58;;;14.38;;
74196;SDS011;62555;52.678;4.900;2022-11-14T09:45:16;23.23;;;13.35;;
74196;SDS011;62555;52.678;4.900;2022-11-14T09:47:43;26.33;;;12.90;;
74196;SDS011;62555;52.678;4.900;2022-11-14T09:50:15;22.60;;;14.18;;
74196;SDS011;62555;52.678;4.900;2022-11-14T09:52:43;22.67;;;13.32;;
74196;SDS011;62555;52.678;4.900;2022-11-14T09:57:52;22.23;;;12.57;;
74196;SDS011;62555;52.678;4.900;2022-11-14T10:00:20;27.92;;;13.93;;
74196;SDS011;62555;52.678;4.900;2022-11-14T10:03:08;24.63;;;14.90;;
74196;SDS011;62555;52.678;4.900;2022-11-14T10:11:00;22.98;;;13.55;;
74196;SDS011;62555;52.678;4.900;2022-11-14T10:19:26;21.52;;;13.18;;
74196;SDS011;62555;52.678;4.900;2022-11-14T10:27:27;21.88;;;13.82;;
74196;SDS011;62555;52.678;4.900;2022-11-14T10:40:37;21.73;;;13.00;;
74196;SDS011;62555;52.678;4.900;2022-11-14T10:43:10;20.55;;;14.13;;
74196;SDS011;62555;52.678;4.900;2022-11-14T10:45:46;19.42;;;12.18;;
74196;SDS011;62555;52.678;4.900;2022-11-14T10:48:16;20.60;;;12.80;;
74196;SDS011;62555;52.678;4.900;2022-11-14T10:51:04;20.58;;;13.77;;
74196;SDS011;62555;52.678;4.900;2022-11-14T10:56:22;23.92;;;14.57;;
74196;SDS011;62555;52.678;4.900;2022-11-14T10:58:48;23.38;;;13.55;;
74196;SDS011;62555;52.678;4.900;2022-11-14T11:04:18;20.33;;;13.55;;
74196;SDS011;62555;52.678;4.900;2022-11-14T11:06:48;21.55;;;13.73;;
74196;SDS011;62555;52.678;4.900;2022-11-14T11:09:16;21.90;;;13.45;;
74196;SDS011;62555;52.678;4.900;2022-11-14T11:12:02;18.75;;;12.07;;
74196;SDS011;62555;52.678;4.900;2022-11-14T11:14:29;22.27;;;13.55;;
74196;SDS011;62555;52.678;4.900;2022-11-14T11:19:39;23.85;;;17.13;;
74196;SDS011;62555;52.678;4.900;2022-11-14T11:24:50;30.27;;;19.38;;
74196;SDS011;62555;52.678;4.900;2022-11-14T11:27:26;32.70;;;20.33;;
74196;SDS011;62555;52.678;4.900;2022-11-14T11:30:07;36.17;;;21.70;;
74196;SDS011;62555;52.678;4.900;2022-11-14T11:32:41;31.17;;;19.85;;
74196;SDS011;62555;52.678;4.900;2022-11-14T11:35:16;32.05;;;19.70;;
74196;SDS011;62555;52.678;4.900;2022-11-14T11:40:18;30.98;;;20.75;;
74196;SDS011;62555;52.678;4.900;2022-11-14T11:42:47;33.15;;;21.65;;
74196;SDS011;62555;52.678;4.900;2022-11-14T11:45:16;29.42;;;19.27;;
74196;SDS011;62555;52.678;4.900;2022-11-14T11:47:56;29.80;;;17.85;;
74196;SDS011;62555;52.678;4.900;2022-11-14T11:50:23;27.17;;;17.20;;
74196;SDS011;62555;52.678;4.900;2022-11-14T11:55:47;29.63;;;18.73;;
74196;SDS011;62555;52.678;4.900;2022-11-14T11:58:19;22.80;;;15.93;;
74196;SDS011;62555;52.678;4.900;2022-11-14T12:00:49;26.48;;;16.98;;
74196;SDS011;62555;52.678;4.900;2022-11-14T12:03:16;23.13;;;16.95;;
74196;SDS011;62555;52.678;4.900;2022-11-14T12:08:34;23.80;;;16.73;;
74196;SDS011;62555;52.678;4.900;2022-11-14T12:11:03;24.48;;;16.52;;
74196;SDS011;62555;52.678;4.900;2022-11-14T12:16:16;24.40;;;16.10;;
74196;SDS011;62555;52.678;4.900;2022-11-14T12:28:18;22.17;;;15.90;;
74196;SDS011;62555;52.678;4.900;2022-11-14T12:30:22;23.13;;;15.15;;
74196;SDS011;62555;52.678;4.900;2022-11-14T12:32:56;22.77;;;15.70;;
74196;SDS011;62555;52.678;4.900;2022-11-14T12:35:47;19.52;;;15.00;;
74196;SDS011;62555;52.678;4.900;2022-11-14T12:38:15;21.55;;;13.98;;
74196;SDS011;62555;52.678;4.900;2022-11-14T12:44:17;20.30;;;12.98;;
74196;SDS011;62555;52.678;4.900;2022-11-14T12:54:51;17.10;;;12.75;;
74196;SDS011;62555;52.678;4.900;2022-11-14T12:57:20;18.55;;;13.23;;
74196;SDS011;62555;52.678;4.900;2022-11-14T13:00:25;20.33;;;13.43;;
74196;SDS011;62555;52.678;4.900;2022-11-14T13:11:32;15.32;;;12.20;;
74196;SDS011;62555;52.678;4.900;2022-11-14T13:14:19;18.75;;;12.80;;
74196;SDS011;62555;52.678;4.900;2022-11-14T13:26:17;18.95;;;12.98;;
74196;SDS011;62555;52.678;4.900;2022-11-14T13:36:08;18.30;;;12.35;;
74196;SDS011;62555;52.678;4.900;2022-11-14T13:38:55;17.90;;;12.18;;
74196;SDS011;62555;52.678;4.900;2022-11-14T13:52:24;16.50;;;12.13;;
74196;SDS011;62555;52.678;4.900;2022-11-14T13:54:52;18.88;;;11.65;;
74196;SDS011;62555;52.678;4.900;2022-11-14T13:57:22;17.65;;;11.88;;
74196;SDS011;62555;52.678;4.900;2022-11-14T14:08:33;15.50;;;10.88;;
74196;SDS011;62555;52.678;4.900;2022-11-14T14:11:31;13.88;;;10.35;;
74196;SDS011;62555;52.678;4.900;2022-11-14T14:16:44;15.10;;;10.48;;
74196;SDS011;62555;52.678;4.900;2022-11-14T14:19:17;16.77;;;11.35;;
74196;SDS011;62555;52.678;4.900;2022-11-14T14:24:26;16.02;;;11.10;;
74196;SDS011;62555;52.678;4.900;2022-11-14T14:32:16;17.30;;;12.37;;
74196;SDS011;62555;52.678;4.900;2022-11-14T14:34:42;14.38;;;10.57;;
74196;SDS011;62555;52.678;4.900;2022-11-14T14:37:17;16.10;;;11.18;;
74196;SDS011;62555;52.678;4.900;2022-11-14T14:40:06;18.35;;;10.02;;
74196;SDS011;62555;52.678;4.900;2022-11-14T14:42:37;14.98;;;9.55;;
74196;SDS011;62555;52.678;4.900;2022-11-14T14:45:06;15.55;;;11.18;;
74196;SDS011;62555;52.678;4.900;2022-11-14T14:47:39;14.57;;;10.23;;
74196;SDS011;62555;52.678;4.900;2022-11-14T14:50:11;13.70;;;10.38;;
74196;SDS011;62555;52.678;4.900;2022-11-14T14:53:01;14.50;;;10.25;;
74196;SDS011;62555;52.678;4.900;2022-11-14T14:55:31;15.15;;;10.52;;
74196;SDS011;62555;52.678;4.900;2022-11-14T14:58:11;15.65;;;10.70;;
74196;SDS011;62555;52.678;4.900;2022-11-14T15:00:58;16.65;;;11.18;;
74196;SDS011;62555;52.678;4.900;2022-11-14T15:03:46;17.02;;;11.95;;
74196;SDS011;62555;52.678;4.900;2022-11-14T15:06:20;15.82;;;11.30;;
74196;SDS011;62555;52.678;4.900;2022-11-14T15:08:53;17.20;;;11.70;;
74196;SDS011;62555;52.678;4.900;2022-11-14T15:11:20;14.27;;;11.32;;
74196;SDS011;62555;52.678;4.900;2022-11-14T15:13:46;14.15;;;10.70;;
74196;SDS011;62555;52.678;4.900;2022-11-14T15:16:14;14.63;;;11.13;;
74196;SDS011;62555;52.678;4.900;2022-11-14T15:18:40;15.40;;;10.98;;
74196;SDS011;62555;52.678;4.900;2022-11-14T15:23:41;14.75;;;10.68;;
74196;SDS011;62555;52.678;4.900;2022-11-14T15:26:25;12.20;;;10.45;;
74196;SDS011;62555;52.678;4.900;2022-11-14T15:29:01;14.45;;;10.45;;
74196;SDS011;62555;52.678;4.900;2022-11-14T15:31:57;14.77;;;11.95;;
74196;SDS011;62555;52.678;4.900;2022-11-14T15:34:25;14.63;;;11.50;;
74196;SDS011;62555;52.678;4.900;2022-11-14T15:39:40;15.27;;;12.20;;
74196;SDS011;62555;52.678;4.900;2022-11-14T15:44:57;15.27;;;11.07;;
74196;SDS011;62555;52.678;4.900;2022-11-14T15:47:38;16.60;;;12.40;;
74196;SDS011;62555;52.678;4.900;2022-11-14T15:52:39;15.88;;;11.90;;
74196;SDS011;62555;52.678;4.900;2022-11-14T15:55:20;15.95;;;12.15;;
74196;SDS011;62555;52.678;4.900;2022-11-14T15:57:46;14.70;;;11.02;;
74196;SDS011;62555;52.678;4.900;2022-11-14T16:00:12;16.27;;;12.05;;
74196;SDS011;62555;52.678;4.900;2022-11-14T16:02:57;15.95;;;12.30;;
74196;SDS011;62555;52.678;4.900;2022-11-14T16:05:28;16.70;;;11.73;;
74196;SDS011;62555;52.678;4.900;2022-11-14T16:07:54;14.23;;;11.63;;
74196;SDS011;62555;52.678;4.900;2022-11-14T16:12:47;18.73;;;13.35;;
74196;SDS011;62555;52.678;4.900;2022-11-14T16:15:12;16.52;;;12.52;;
74196;SDS011;62555;52.678;4.900;2022-11-14T16:17:41;16.52;;;11.98;;
74196;SDS011;62555;52.678;4.900;2022-11-14T16:20:16;15.48;;;12.10;;
74196;SDS011;62555;52.678;4.900;2022-11-14T16:22:43;17.35;;;13.57;;
74196;SDS011;62555;52.678;4.900;2022-11-14T16:25:19;16.17;;;12.10;;
74196;SDS011;62555;52.678;4.900;2022-11-14T16:27:49;18.23;;;11.95;;
74196;SDS011;62555;52.678;4.900;2022-11-14T16:30:16;19.15;;;13.68;;
74196;SDS011;62555;52.678;4.900;2022-11-14T16:32:43;16.92;;;12.32;;
74196;SDS011;62555;52.678;4.900;2022-11-14T16:35:12;16.80;;;13.02;;
74196;SDS011;62555;52.678;4.900;2022-11-14T16:37:38;18.25;;;12.57;;
74196;SDS011;62555;52.678;4.900;2022-11-14T16:40:04;19.35;;;13.57;;
74196;SDS011;62555;52.678;4.900;2022-11-14T16:42:29;17.95;;;12.57;;
74196;SDS011;62555;52.678;4.900;2022-11-14T16:45:01;18.52;;;12.60;;
74196;SDS011;62555;52.678;4.900;2022-11-14T16:47:27;16.83;;;12.35;;
74196;SDS011;62555;52.678;4.900;2022-11-14T16:49:52;15.85;;;13.07;;
74196;SDS011;62555;52.678;4.900;2022-11-14T16:52:18;17.23;;;14.02;;
74196;SDS011;62555;52.678;4.900;2022-11-14T16:54:44;17.40;;;13.27;;
74196;SDS011;62555;52.678;4.900;2022-11-14T16:57:09;17.98;;;12.88;;
74196;SDS011;62555;52.678;4.900;2022-11-14T16:59:35;23.45;;;13.20;;
74196;SDS011;62555;52.678;4.900;2022-11-14T17:02:00;18.08;;;13.60;;